sensor_id;sensor_type;location;lat;lon;timestamp;P1;durP1;ratioP1;P2;durP2;ratioP2
15812;SDS011;8007;51.404;6.304;2022-10-16T00:00:35;5.63;;;3.43;;
15812;SDS011;8007;51.404;6.304;2022-10-16T00:02:37;4.50;;;3.30;;
15812;SDS011;8007;51.404;6.304;2022-10-16T00:04:39;4.77;;;3.10;;
15812;SDS011;8007;51.404;6.304;2022-10-16T00:06:41;5.40;;;3.27;;
15812;SDS011;8007;51.404;6.304;2022-10-16T00:08:43;3.57;;;3.10;;
15812;SDS011;8007;51.404;6.304;2022-10-16T00:10:46;5.07;;;3.50;;
15812;SDS011;8007;51.404;6.304;2022-10-16T00:12:49;4.17;;;3.57;;
15812;SDS011;8007;51.404;6.304;2022-10-16T00:14:51;8.17;;;3.80;;
15812;SDS011;8007;51.404;6.304;2022-10-16T00:16:54;4.23;;;3.40;;
15812;SDS011;8007;51.404;6.304;2022-10-16T00:18:56;5.37;;;3.20;;
15812;SDS011;8007;51.404;6.304;2022-10-16T00:21:01;5.20;;;3.03;;
15812;SDS011;8007;51.404;6.304;2022-10-16T00:23:04;6.57;;;3.20;;
15812;SDS011;8007;51.404;6.304;2022-10-16T00:25:06;3.73;;;3.30;;
15812;SDS011;8007;51.404;6.304;2022-10-16T00:27:09;4.23;;;3.00;;
15812;SDS011;8007;51.404;6.304;2022-10-16T00:29:12;3.40;;;3.10;;
15812;SDS011;8007;51.404;6.304;2022-10-16T00:31:15;4.37;;;3.40;;
15812;SDS011;8007;51.404;6.304;2022-10-16T00:33:17;4.63;;;3.50;;
15812;SDS011;8007;51.404;6.304;2022-10-16T00:35:19;5.40;;;3.23;;
15812;SDS011;8007;51.404;6.304;2022-10-16T00:37:21;5.23;;;3.27;;
15812;SDS011;8007;51.404;6.304;2022-10-16T00:39:23;6.83;;;3.03;;
15812;SDS011;8007;51.404;6.304;2022-10-16T00:41:26;7.63;;;2.97;;
15812;SDS011;8007;51.404;6.304;2022-10-16T00:43:32;6.57;;;2.90;;
15812;SDS011;8007;51.404;6.304;2022-10-16T00:45:37;4.43;;;3.20;;
15812;SDS011;8007;51.404;6.304;2022-10-16T00:47:40;7.43;;;3.20;;
15812;SDS011;8007;51.404;6.304;2022-10-16T00:49:45;4.43;;;2.83;;
15812;SDS011;8007;51.404;6.304;2022-10-16T00:51:48;5.40;;;2.77;;
15812;SDS011;8007;51.404;6.304;2022-10-16T00:53:51;3.07;;;2.60;;
15812;SDS011;8007;51.404;6.304;2022-10-16T00:55:53;5.00;;;2.87;;
15812;SDS011;8007;51.404;6.304;2022-10-16T00:57:56;4.97;;;2.97;;
15812;SDS011;8007;51.404;6.304;2022-10-16T00:59:59;4.27;;;2.70;;
15812;SDS011;8007;51.404;6.304;2022-10-16T01:02:03;3.77;;;2.90;;
15812;SDS011;8007;51.404;6.304;2022-10-16T01:04:06;7.63;;;3.20;;
15812;SDS011;8007;51.404;6.304;2022-10-16T01:06:24;3.87;;;2.67;;
15812;SDS011;8007;51.404;6.304;2022-10-16T01:08:32;2.80;;;2.50;;
15812;SDS011;8007;51.404;6.304;2022-10-16T01:10:38;4.27;;;3.23;;
15812;SDS011;8007;51.404;6.304;2022-10-16T01:12:42;3.63;;;2.57;;
15812;SDS011;8007;51.404;6.304;2022-10-16T01:14:46;7.97;;;2.80;;
15812;SDS011;8007;51.404;6.304;2022-10-16T01:16:51;3.77;;;2.47;;
15812;SDS011;8007;51.404;6.304;2022-10-16T01:18:57;3.00;;;2.70;;
15812;SDS011;8007;51.404;6.304;2022-10-16T01:21:02;5.43;;;2.87;;
15812;SDS011;8007;51.404;6.304;2022-10-16T01:23:07;4.10;;;2.40;;
15812;SDS011;8007;51.404;6.304;2022-10-16T01:25:12;6.90;;;2.70;;
15812;SDS011;8007;51.404;6.304;2022-10-16T01:27:20;6.57;;;2.50;;
15812;SDS011;8007;51.404;6.304;2022-10-16T01:29:24;5.43;;;2.60;;
15812;SDS011;8007;51.404;6.304;2022-10-16T01:31:29;3.23;;;2.20;;
15812;SDS011;8007;51.404;6.304;2022-10-16T01:33:35;4.77;;;2.50;;
15812;SDS011;8007;51.404;6.304;2022-10-16T01:35:40;2.90;;;2.40;;
15812;SDS011;8007;51.404;6.304;2022-10-16T01:37:46;4.03;;;2.20;;
15812;SDS011;8007;51.404;6.304;2022-10-16T01:39:50;2.77;;;2.00;;
15812;SDS011;8007;51.404;6.304;2022-10-16T01:41:54;4.13;;;2.30;;
15812;SDS011;8007;51.404;6.304;2022-10-16T01:44:00;3.50;;;2.37;;
15812;SDS011;8007;51.404;6.304;2022-10-16T01:46:03;2.43;;;2.23;;
15812;SDS011;8007;51.404;6.304;2022-10-16T01:48:06;3.63;;;2.10;;
15812;SDS011;8007;51.404;6.304;2022-10-16T01:50:09;9.10;;;2.57;;
15812;SDS011;8007;51.404;6.304;2022-10-16T01:52:12;2.87;;;2.47;;
15812;SDS011;8007;51.404;6.304;2022-10-16T01:54:15;4.67;;;2.30;;
15812;SDS011;8007;51.404;6.304;2022-10-16T01:56:18;6.80;;;2.77;;
15812;SDS011;8007;51.404;6.304;2022-10-16T01:58:22;3.57;;;2.73;;
15812;SDS011;8007;51.404;6.304;2022-10-16T02:00:26;3.57;;;2.60;;
15812;SDS011;8007;51.404;6.304;2022-10-16T02:02:29;3.60;;;2.70;;
15812;SDS011;8007;51.404;6.304;2022-10-16T02:04:33;4.83;;;2.73;;
15812;SDS011;8007;51.404;6.304;2022-10-16T02:06:36;4.87;;;2.40;;
15812;SDS011;8007;51.404;6.304;2022-10-16T02:08:38;3.67;;;2.40;;
15812;SDS011;8007;51.404;6.304;2022-10-16T02:10:44;2.53;;;2.33;;
15812;SDS011;8007;51.404;6.304;2022-10-16T02:12:47;5.07;;;2.90;;
15812;SDS011;8007;51.404;6.304;2022-10-16T02:14:51;4.13;;;2.20;;
15812;SDS011;8007;51.404;6.304;2022-10-16T02:16:55;4.30;;;2.27;;
15812;SDS011;8007;51.404;6.304;2022-10-16T02:18:57;2.33;;;2.13;;
15812;SDS011;8007;51.404;6.304;2022-10-16T02:21:01;4.00;;;2.30;;
15812;SDS011;8007;51.404;6.304;2022-10-16T02:23:04;2.60;;;2.40;;
15812;SDS011;8007;51.404;6.304;2022-10-16T02:25:09;2.20;;;2.00;;
15812;SDS011;8007;51.404;6.304;2022-10-16T02:27:13;2.50;;;2.30;;
15812;SDS011;8007;51.404;6.304;2022-10-16T02:29:17;2.40;;;2.20;;
15812;SDS011;8007;51.404;6.304;2022-10-16T02:31:23;2.37;;;1.93;;
15812;SDS011;8007;51.404;6.304;2022-10-16T02:33:28;2.63;;;2.33;;
15812;SDS011;8007;51.404;6.304;2022-10-16T02:35:31;3.50;;;1.90;;
15812;SDS011;8007;51.404;6.304;2022-10-16T02:37:33;3.77;;;1.87;;
15812;SDS011;8007;51.404;6.304;2022-10-16T02:39:35;1.83;;;1.73;;
15812;SDS011;8007;51.404;6.304;2022-10-16T02:41:38;2.57;;;1.77;;
15812;SDS011;8007;51.404;6.304;2022-10-16T02:43:40;2.93;;;1.83;;
15812;SDS011;8007;51.404;6.304;2022-10-16T02:45:42;2.00;;;1.60;;
15812;SDS011;8007;51.404;6.304;2022-10-16T02:47:45;1.70;;;1.60;;
15812;SDS011;8007;51.404;6.304;2022-10-16T02:49:48;1.63;;;1.50;;
15812;SDS011;8007;51.404;6.304;2022-10-16T02:51:50;3.37;;;1.80;;
15812;SDS011;8007;51.404;6.304;2022-10-16T02:53:52;8.50;;;2.43;;
15812;SDS011;8007;51.404;6.304;2022-10-16T02:55:55;7.23;;;1.73;;
15812;SDS011;8007;51.404;6.304;2022-10-16T02:57:57;3.57;;;1.80;;
15812;SDS011;8007;51.404;6.304;2022-10-16T02:59:59;2.70;;;1.87;;
15812;SDS011;8007;51.404;6.304;2022-10-16T03:02:01;2.00;;;1.80;;
15812;SDS011;8007;51.404;6.304;2022-10-16T03:04:03;1.97;;;1.67;;
15812;SDS011;8007;51.404;6.304;2022-10-16T03:06:07;1.63;;;1.53;;
15812;SDS011;8007;51.404;6.304;2022-10-16T03:08:09;1.70;;;1.60;;
15812;SDS011;8007;51.404;6.304;2022-10-16T03:10:11;1.47;;;1.37;;
15812;SDS011;8007;51.404;6.304;2022-10-16T03:12:13;2.07;;;1.40;;
15812;SDS011;8007;51.404;6.304;2022-10-16T03:14:15;1.70;;;1.60;;
15812;SDS011;8007;51.404;6.304;2022-10-16T03:16:18;1.83;;;1.30;;
15812;SDS011;8007;51.404;6.304;2022-10-16T03:18:20;1.87;;;1.57;;
15812;SDS011;8007;51.404;6.304;2022-10-16T03:20:22;2.50;;;1.40;;
15812;SDS011;8007;51.404;6.304;2022-10-16T03:22:25;2.10;;;1.40;;
15812;SDS011;8007;51.404;6.304;2022-10-16T03:24:28;1.60;;;1.50;;
15812;SDS011;8007;51.404;6.304;2022-10-16T03:26:30;1.43;;;1.33;;
15812;SDS011;8007;51.404;6.304;2022-10-16T03:28:32;4.93;;;1.40;;
15812;SDS011;8007;51.404;6.304;2022-10-16T03:30:34;4.53;;;1.40;;
15812;SDS011;8007;51.404;6.304;2022-10-16T03:32:36;3.50;;;1.50;;
15812;SDS011;8007;51.404;6.304;2022-10-16T03:34:38;1.60;;;1.50;;
15812;SDS011;8007;51.404;6.304;2022-10-16T03:36:40;1.67;;;1.30;;
15812;SDS011;8007;51.404;6.304;2022-10-16T03:38:44;2.07;;;1.50;;
15812;SDS011;8007;51.404;6.304;2022-10-16T03:40:46;1.30;;;1.23;;
15812;SDS011;8007;51.404;6.304;2022-10-16T03:42:48;1.60;;;1.50;;
15812;SDS011;8007;51.404;6.304;2022-10-16T03:44:50;2.70;;;1.17;;
15812;SDS011;8007;51.404;6.304;2022-10-16T03:46:52;2.67;;;1.40;;
15812;SDS011;8007;51.404;6.304;2022-10-16T03:48:55;2.47;;;1.57;;
15812;SDS011;8007;51.404;6.304;2022-10-16T03:50:57;1.67;;;1.57;;
15812;SDS011;8007;51.404;6.304;2022-10-16T03:52:59;2.87;;;1.40;;
15812;SDS011;8007;51.404;6.304;2022-10-16T03:55:03;2.03;;;1.30;;
15812;SDS011;8007;51.404;6.304;2022-10-16T03:57:05;2.50;;;1.50;;
15812;SDS011;8007;51.404;6.304;2022-10-16T03:59:07;1.90;;;1.30;;
15812;SDS011;8007;51.404;6.304;2022-10-16T04:01:10;4.30;;;1.50;;
15812;SDS011;8007;51.404;6.304;2022-10-16T04:03:12;5.10;;;1.50;;
15812;SDS011;8007;51.404;6.304;2022-10-16T04:05:14;1.50;;;1.33;;
15812;SDS011;8007;51.404;6.304;2022-10-16T04:07:16;3.77;;;1.60;;
15812;SDS011;8007;51.404;6.304;2022-10-16T04:09:18;5.87;;;1.33;;
15812;SDS011;8007;51.404;6.304;2022-10-16T04:11:22;3.40;;;1.60;;
15812;SDS011;8007;51.404;6.304;2022-10-16T04:13:24;1.67;;;1.57;;
15812;SDS011;8007;51.404;6.304;2022-10-16T04:15:26;2.07;;;1.50;;
15812;SDS011;8007;51.404;6.304;2022-10-16T04:17:28;3.27;;;1.70;;
15812;SDS011;8007;51.404;6.304;2022-10-16T04:19:30;1.77;;;1.63;;
15812;SDS011;8007;51.404;6.304;2022-10-16T04:21:32;3.90;;;1.73;;
15812;SDS011;8007;51.404;6.304;2022-10-16T04:23:34;1.70;;;1.60;;
15812;SDS011;8007;51.404;6.304;2022-10-16T04:25:36;2.80;;;1.70;;
15812;SDS011;8007;51.404;6.304;2022-10-16T04:27:40;2.87;;;1.77;;
15812;SDS011;8007;51.404;6.304;2022-10-16T04:29:42;1.90;;;1.40;;
15812;SDS011;8007;51.404;6.304;2022-10-16T04:31:44;1.80;;;1.70;;
15812;SDS011;8007;51.404;6.304;2022-10-16T04:33:46;1.67;;;1.50;;
15812;SDS011;8007;51.404;6.304;2022-10-16T04:35:55;2.83;;;1.70;;
15812;SDS011;8007;51.404;6.304;2022-10-16T04:37:57;2.80;;;1.50;;
15812;SDS011;8007;51.404;6.304;2022-10-16T04:39:59;1.60;;;1.50;;
15812;SDS011;8007;51.404;6.304;2022-10-16T04:42:02;2.83;;;1.53;;
15812;SDS011;8007;51.404;6.304;2022-10-16T04:44:06;3.50;;;1.60;;
15812;SDS011;8007;51.404;6.304;2022-10-16T04:46:08;2.10;;;1.60;;
15812;SDS011;8007;51.404;6.304;2022-10-16T04:48:10;3.07;;;1.70;;
15812;SDS011;8007;51.404;6.304;2022-10-16T04:50:12;3.33;;;1.60;;
15812;SDS011;8007;51.404;6.304;2022-10-16T04:52:15;5.00;;;1.50;;
15812;SDS011;8007;51.404;6.304;2022-10-16T04:54:18;2.07;;;1.70;;
15812;SDS011;8007;51.404;6.304;2022-10-16T04:56:21;2.37;;;1.83;;
15812;SDS011;8007;51.404;6.304;2022-10-16T04:58:23;2.50;;;1.53;;
15812;SDS011;8007;51.404;6.304;2022-10-16T05:00:26;1.67;;;1.57;;
15812;SDS011;8007;51.404;6.304;2022-10-16T05:02:29;2.03;;;1.80;;
15812;SDS011;8007;51.404;6.304;2022-10-16T05:04:31;1.60;;;1.50;;
15812;SDS011;8007;51.404;6.304;2022-10-16T05:06:33;2.17;;;1.70;;
15812;SDS011;8007;51.404;6.304;2022-10-16T05:08:35;1.60;;;1.50;;
15812;SDS011;8007;51.404;6.304;2022-10-16T05:10:37;3.80;;;1.50;;
15812;SDS011;8007;51.404;6.304;2022-10-16T05:12:39;2.10;;;1.60;;
15812;SDS011;8007;51.404;6.304;2022-10-16T05:14:42;3.40;;;1.60;;
15812;SDS011;8007;51.404;6.304;2022-10-16T05:16:45;1.60;;;1.50;;
15812;SDS011;8007;51.404;6.304;2022-10-16T05:18:48;1.60;;;1.50;;
15812;SDS011;8007;51.404;6.304;2022-10-16T05:20:50;4.00;;;2.67;;
15812;SDS011;8007;51.404;6.304;2022-10-16T05:22:52;1.63;;;1.53;;
15812;SDS011;8007;51.404;6.304;2022-10-16T05:24:55;3.27;;;1.60;;
15812;SDS011;8007;51.404;6.304;2022-10-16T05:26:57;3.40;;;1.53;;
15812;SDS011;8007;51.404;6.304;2022-10-16T05:28:59;4.93;;;2.00;;
15812;SDS011;8007;51.404;6.304;2022-10-16T05:31:03;2.43;;;1.77;;
15812;SDS011;8007;51.404;6.304;2022-10-16T05:33:07;6.70;;;1.90;;
15812;SDS011;8007;51.404;6.304;2022-10-16T05:35:09;3.23;;;1.83;;
15812;SDS011;8007;51.404;6.304;2022-10-16T05:37:11;2.00;;;1.80;;
15812;SDS011;8007;51.404;6.304;2022-10-16T05:39:14;2.63;;;1.80;;
15812;SDS011;8007;51.404;6.304;2022-10-16T05:41:16;2.27;;;1.80;;
15812;SDS011;8007;51.404;6.304;2022-10-16T05:43:21;7.53;;;2.00;;
15812;SDS011;8007;51.404;6.304;2022-10-16T05:45:24;5.13;;;2.23;;
15812;SDS011;8007;51.404;6.304;2022-10-16T05:47:27;3.50;;;1.90;;
15812;SDS011;8007;51.404;6.304;2022-10-16T05:49:31;2.80;;;2.47;;
15812;SDS011;8007;51.404;6.304;2022-10-16T05:51:33;4.47;;;2.00;;
15812;SDS011;8007;51.404;6.304;2022-10-16T05:53:36;2.10;;;1.90;;
15812;SDS011;8007;51.404;6.304;2022-10-16T05:55:39;2.50;;;2.17;;
15812;SDS011;8007;51.404;6.304;2022-10-16T05:57:41;2.57;;;2.03;;
15812;SDS011;8007;51.404;6.304;2022-10-16T05:59:43;3.30;;;2.20;;
15812;SDS011;8007;51.404;6.304;2022-10-16T06:01:47;2.37;;;1.77;;
15812;SDS011;8007;51.404;6.304;2022-10-16T06:03:50;2.70;;;2.23;;
15812;SDS011;8007;51.404;6.304;2022-10-16T06:05:54;2.70;;;2.20;;
15812;SDS011;8007;51.404;6.304;2022-10-16T06:07:56;3.10;;;2.20;;
15812;SDS011;8007;51.404;6.304;2022-10-16T06:09:58;3.23;;;2.20;;
15812;SDS011;8007;51.404;6.304;2022-10-16T06:12:01;3.50;;;2.27;;
15812;SDS011;8007;51.404;6.304;2022-10-16T06:14:03;3.57;;;2.40;;
15812;SDS011;8007;51.404;6.304;2022-10-16T06:16:07;3.63;;;2.43;;
15812;SDS011;8007;51.404;6.304;2022-10-16T06:18:09;6.27;;;2.50;;
15812;SDS011;8007;51.404;6.304;2022-10-16T06:20:12;3.37;;;2.50;;
15812;SDS011;8007;51.404;6.304;2022-10-16T06:22:15;5.13;;;2.77;;
15812;SDS011;8007;51.404;6.304;2022-10-16T06:24:18;4.10;;;2.77;;
15812;SDS011;8007;51.404;6.304;2022-10-16T06:26:22;3.83;;;2.30;;
15812;SDS011;8007;51.404;6.304;2022-10-16T06:28:24;3.53;;;2.30;;
15812;SDS011;8007;51.404;6.304;2022-10-16T06:30:26;2.93;;;2.60;;
15812;SDS011;8007;51.404;6.304;2022-10-16T06:32:29;4.63;;;3.27;;
15812;SDS011;8007;51.404;6.304;2022-10-16T06:34:31;3.80;;;2.70;;
15812;SDS011;8007;51.404;6.304;2022-10-16T06:36:33;4.60;;;2.67;;
15812;SDS011;8007;51.404;6.304;2022-10-16T06:38:37;3.93;;;2.87;;
15812;SDS011;8007;51.404;6.304;2022-10-16T06:40:39;16.10;;;4.30;;
15812;SDS011;8007;51.404;6.304;2022-10-16T06:42:42;4.80;;;2.83;;
15812;SDS011;8007;51.404;6.304;2022-10-16T06:44:47;7.80;;;2.90;;
15812;SDS011;8007;51.404;6.304;2022-10-16T06:46:49;2.87;;;2.60;;
15812;SDS011;8007;51.404;6.304;2022-10-16T06:48:51;3.80;;;3.00;;
15812;SDS011;8007;51.404;6.304;2022-10-16T06:50:57;4.57;;;2.50;;
15812;SDS011;8007;51.404;6.304;2022-10-16T06:52:59;13.87;;;3.50;;
15812;SDS011;8007;51.404;6.304;2022-10-16T06:55:04;3.40;;;3.10;;
15812;SDS011;8007;51.404;6.304;2022-10-16T06:57:06;5.37;;;2.77;;
15812;SDS011;8007;51.404;6.304;2022-10-16T06:59:08;3.47;;;2.73;;
15812;SDS011;8007;51.404;6.304;2022-10-16T07:01:11;3.83;;;2.73;;
15812;SDS011;8007;51.404;6.304;2022-10-16T07:03:13;3.53;;;2.80;;
15812;SDS011;8007;51.404;6.304;2022-10-16T07:05:15;3.60;;;2.67;;
15812;SDS011;8007;51.404;6.304;2022-10-16T07:07:18;7.63;;;3.13;;
15812;SDS011;8007;51.404;6.304;2022-10-16T07:09:20;3.27;;;2.70;;
15812;SDS011;8007;51.404;6.304;2022-10-16T07:11:23;4.80;;;3.13;;
15812;SDS011;8007;51.404;6.304;2022-10-16T07:13:26;4.30;;;2.90;;
15812;SDS011;8007;51.404;6.304;2022-10-16T07:15:33;4.27;;;3.00;;
15812;SDS011;8007;51.404;6.304;2022-10-16T07:17:35;4.83;;;2.97;;
15812;SDS011;8007;51.404;6.304;2022-10-16T07:19:40;5.60;;;3.20;;
15812;SDS011;8007;51.404;6.304;2022-10-16T07:21:42;5.80;;;3.37;;
15812;SDS011;8007;51.404;6.304;2022-10-16T07:23:45;3.50;;;3.00;;
15812;SDS011;8007;51.404;6.304;2022-10-16T07:25:53;4.60;;;3.20;;
15812;SDS011;8007;51.404;6.304;2022-10-16T07:27:57;6.90;;;3.67;;
15812;SDS011;8007;51.404;6.304;2022-10-16T07:29:59;3.43;;;2.90;;
15812;SDS011;8007;51.404;6.304;2022-10-16T07:32:02;5.43;;;2.80;;
15812;SDS011;8007;51.404;6.304;2022-10-16T07:34:04;3.73;;;3.10;;
15812;SDS011;8007;51.404;6.304;2022-10-16T07:36:06;3.17;;;2.87;;
15812;SDS011;8007;51.404;6.304;2022-10-16T07:38:08;4.77;;;2.87;;
15812;SDS011;8007;51.404;6.304;2022-10-16T07:40:11;3.20;;;2.87;;
15812;SDS011;8007;51.404;6.304;2022-10-16T07:42:13;5.23;;;3.47;;
15812;SDS011;8007;51.404;6.304;2022-10-16T07:44:17;7.10;;;3.73;;
15812;SDS011;8007;51.404;6.304;2022-10-16T07:46:21;3.27;;;2.93;;
15812;SDS011;8007;51.404;6.304;2022-10-16T07:48:25;3.87;;;2.40;;
15812;SDS011;8007;51.404;6.304;2022-10-16T07:50:28;3.70;;;2.40;;
15812;SDS011;8007;51.404;6.304;2022-10-16T07:52:30;3.17;;;2.20;;
15812;SDS011;8007;51.404;6.304;2022-10-16T07:54:32;4.13;;;2.50;;
15812;SDS011;8007;51.404;6.304;2022-10-16T07:56:37;2.67;;;2.00;;
15812;SDS011;8007;51.404;6.304;2022-10-16T07:58:39;2.30;;;2.00;;
15812;SDS011;8007;51.404;6.304;2022-10-16T08:00:43;3.63;;;2.00;;
15812;SDS011;8007;51.404;6.304;2022-10-16T08:02:45;5.70;;;2.10;;
15812;SDS011;8007;51.404;6.304;2022-10-16T08:04:47;3.17;;;1.87;;
15812;SDS011;8007;51.404;6.304;2022-10-16T08:06:50;1.60;;;1.50;;
15812;SDS011;8007;51.404;6.304;2022-10-16T08:08:54;1.87;;;1.50;;
15812;SDS011;8007;51.404;6.304;2022-10-16T08:10:57;3.00;;;1.83;;
15812;SDS011;8007;51.404;6.304;2022-10-16T08:12:59;2.83;;;1.50;;
15812;SDS011;8007;51.404;6.304;2022-10-16T08:15:01;2.30;;;1.70;;
15812;SDS011;8007;51.404;6.304;2022-10-16T08:17:04;3.47;;;1.63;;
15812;SDS011;8007;51.404;6.304;2022-10-16T08:19:07;1.73;;;1.57;;
15812;SDS011;8007;51.404;6.304;2022-10-16T08:21:12;4.60;;;1.50;;
15812;SDS011;8007;51.404;6.304;2022-10-16T08:23:14;3.50;;;1.60;;
15812;SDS011;8007;51.404;6.304;2022-10-16T08:25:16;2.07;;;1.30;;
15812;SDS011;8007;51.404;6.304;2022-10-16T08:27:19;2.97;;;1.70;;
15812;SDS011;8007;51.404;6.304;2022-10-16T08:29:21;2.33;;;1.60;;
15812;SDS011;8007;51.404;6.304;2022-10-16T08:31:23;1.87;;;1.30;;
15812;SDS011;8007;51.404;6.304;2022-10-16T08:33:28;4.07;;;1.50;;
15812;SDS011;8007;51.404;6.304;2022-10-16T08:35:30;3.57;;;1.73;;
15812;SDS011;8007;51.404;6.304;2022-10-16T08:37:32;4.87;;;1.60;;
15812;SDS011;8007;51.404;6.304;2022-10-16T08:39:35;4.40;;;1.60;;
15812;SDS011;8007;51.404;6.304;2022-10-16T08:44:04;2.07;;;1.43;;
15812;SDS011;8007;51.404;6.304;2022-10-16T08:46:15;3.93;;;1.77;;
15812;SDS011;8007;51.404;6.304;2022-10-16T08:48:21;9.17;;;2.17;;
15812;SDS011;8007;51.404;6.304;2022-10-16T08:50:28;2.30;;;1.40;;
15812;SDS011;8007;51.404;6.304;2022-10-16T08:52:32;5.03;;;1.47;;
15812;SDS011;8007;51.404;6.304;2022-10-16T08:54:37;2.33;;;1.30;;
15812;SDS011;8007;51.404;6.304;2022-10-16T08:56:40;1.20;;;1.10;;
15812;SDS011;8007;51.404;6.304;2022-10-16T08:58:42;4.23;;;1.47;;
15812;SDS011;8007;51.404;6.304;2022-10-16T09:00:46;3.03;;;1.30;;
15812;SDS011;8007;51.404;6.304;2022-10-16T09:02:50;2.50;;;1.37;;
15812;SDS011;8007;51.404;6.304;2022-10-16T09:04:57;3.00;;;1.23;;
15812;SDS011;8007;51.404;6.304;2022-10-16T09:07:06;4.17;;;1.37;;
15812;SDS011;8007;51.404;6.304;2022-10-16T09:09:21;1.33;;;1.20;;
15812;SDS011;8007;51.404;6.304;2022-10-16T09:11:30;1.37;;;1.10;;
15812;SDS011;8007;51.404;6.304;2022-10-16T09:13:36;2.37;;;1.30;;
15812;SDS011;8007;51.404;6.304;2022-10-16T09:15:43;4.20;;;1.33;;
15812;SDS011;8007;51.404;6.304;2022-10-16T09:17:49;3.20;;;1.30;;
15812;SDS011;8007;51.404;6.304;2022-10-16T09:19:53;1.97;;;1.20;;
15812;SDS011;8007;51.404;6.304;2022-10-16T09:21:58;4.10;;;1.47;;
15812;SDS011;8007;51.404;6.304;2022-10-16T09:24:08;2.97;;;1.13;;
15812;SDS011;8007;51.404;6.304;2022-10-16T09:26:12;3.53;;;1.50;;
15812;SDS011;8007;51.404;6.304;2022-10-16T09:28:15;3.67;;;1.10;;
15812;SDS011;8007;51.404;6.304;2022-10-16T09:30:18;3.90;;;1.20;;
15812;SDS011;8007;51.404;6.304;2022-10-16T09:32:21;3.73;;;1.20;;
15812;SDS011;8007;51.404;6.304;2022-10-16T09:34:24;1.60;;;1.30;;
15812;SDS011;8007;51.404;6.304;2022-10-16T09:36:32;2.70;;;1.70;;
15812;SDS011;8007;51.404;6.304;2022-10-16T09:38:38;2.97;;;1.40;;
15812;SDS011;8007;51.404;6.304;2022-10-16T09:40:41;3.83;;;1.20;;
15812;SDS011;8007;51.404;6.304;2022-10-16T09:42:44;2.00;;;1.20;;
15812;SDS011;8007;51.404;6.304;2022-10-16T09:44:47;2.67;;;1.10;;
15812;SDS011;8007;51.404;6.304;2022-10-16T09:47:00;2.90;;;1.30;;
15812;SDS011;8007;51.404;6.304;2022-10-16T09:49:03;3.87;;;1.43;;
15812;SDS011;8007;51.404;6.304;2022-10-16T09:51:06;1.20;;;1.00;;
15812;SDS011;8007;51.404;6.304;2022-10-16T09:53:10;2.17;;;1.40;;
15812;SDS011;8007;51.404;6.304;2022-10-16T09:55:13;1.47;;;1.10;;
15812;SDS011;8007;51.404;6.304;2022-10-16T09:57:18;1.87;;;1.20;;
15812;SDS011;8007;51.404;6.304;2022-10-16T09:59:21;2.00;;;1.10;;
15812;SDS011;8007;51.404;6.304;2022-10-16T10:01:28;2.70;;;1.20;;
15812;SDS011;8007;51.404;6.304;2022-10-16T10:03:35;1.40;;;1.00;;
15812;SDS011;8007;51.404;6.304;2022-10-16T10:05:38;3.43;;;1.30;;
15812;SDS011;8007;51.404;6.304;2022-10-16T10:07:42;1.60;;;1.03;;
15812;SDS011;8007;51.404;6.304;2022-10-16T10:09:45;1.83;;;0.97;;
15812;SDS011;8007;51.404;6.304;2022-10-16T10:11:49;3.07;;;1.03;;
15812;SDS011;8007;51.404;6.304;2022-10-16T10:13:53;3.43;;;1.13;;
15812;SDS011;8007;51.404;6.304;2022-10-16T10:16:05;2.40;;;1.00;;
15812;SDS011;8007;51.404;6.304;2022-10-16T10:18:14;3.27;;;1.27;;
15812;SDS011;8007;51.404;6.304;2022-10-16T10:20:22;4.77;;;0.90;;
15812;SDS011;8007;51.404;6.304;2022-10-16T10:22:25;1.03;;;0.93;;
15812;SDS011;8007;51.404;6.304;2022-10-16T10:24:29;2.23;;;1.00;;
15812;SDS011;8007;51.404;6.304;2022-10-16T10:26:31;2.57;;;0.93;;
15812;SDS011;8007;51.404;6.304;2022-10-16T10:28:53;1.33;;;0.80;;
15812;SDS011;8007;51.404;6.304;2022-10-16T10:30:59;5.77;;;1.47;;
15812;SDS011;8007;51.404;6.304;2022-10-16T10:33:08;2.97;;;1.17;;
15812;SDS011;8007;51.404;6.304;2022-10-16T10:35:14;2.40;;;0.90;;
15812;SDS011;8007;51.404;6.304;2022-10-16T10:37:25;1.50;;;0.90;;
15812;SDS011;8007;51.404;6.304;2022-10-16T10:39:32;3.03;;;1.10;;
15812;SDS011;8007;51.404;6.304;2022-10-16T10:41:44;3.53;;;1.00;;
15812;SDS011;8007;51.404;6.304;2022-10-16T10:43:54;6.87;;;1.17;;
15812;SDS011;8007;51.404;6.304;2022-10-16T10:46:02;2.50;;;1.10;;
15812;SDS011;8007;51.404;6.304;2022-10-16T10:48:12;2.90;;;0.90;;
15812;SDS011;8007;51.404;6.304;2022-10-16T10:50:21;5.10;;;1.10;;
15812;SDS011;8007;51.404;6.304;2022-10-16T10:52:34;3.57;;;0.90;;
15812;SDS011;8007;51.404;6.304;2022-10-16T10:54:40;4.30;;;1.10;;
15812;SDS011;8007;51.404;6.304;2022-10-16T10:56:45;2.80;;;0.90;;
15812;SDS011;8007;51.404;6.304;2022-10-16T10:59:04;3.80;;;1.10;;
15812;SDS011;8007;51.404;6.304;2022-10-16T11:01:11;1.50;;;0.87;;
15812;SDS011;8007;51.404;6.304;2022-10-16T11:03:18;1.60;;;0.80;;
15812;SDS011;8007;51.404;6.304;2022-10-16T11:05:24;2.97;;;0.97;;
15812;SDS011;8007;51.404;6.304;2022-10-16T11:07:30;2.70;;;0.70;;
15812;SDS011;8007;51.404;6.304;2022-10-16T11:09:34;1.10;;;0.80;;
15812;SDS011;8007;51.404;6.304;2022-10-16T11:11:38;2.93;;;1.03;;
15812;SDS011;8007;51.404;6.304;2022-10-16T11:13:43;2.67;;;0.93;;
15812;SDS011;8007;51.404;6.304;2022-10-16T11:15:50;2.90;;;0.90;;
15812;SDS011;8007;51.404;6.304;2022-10-16T11:17:56;2.30;;;0.93;;
15812;SDS011;8007;51.404;6.304;2022-10-16T11:20:00;2.57;;;1.03;;
15812;SDS011;8007;51.404;6.304;2022-10-16T11:22:07;2.70;;;1.00;;
15812;SDS011;8007;51.404;6.304;2022-10-16T11:24:14;5.00;;;1.58;;
15812;SDS011;8007;51.404;6.304;2022-10-16T11:26:18;2.47;;;1.00;;
15812;SDS011;8007;51.404;6.304;2022-10-16T11:28:23;2.33;;;0.88;;
15812;SDS011;8007;51.404;6.304;2022-10-16T11:30:29;4.80;;;1.02;;
15812;SDS011;8007;51.404;6.304;2022-10-16T11:32:33;2.97;;;1.00;;
15812;SDS011;8007;51.404;6.304;2022-10-16T11:34:38;3.60;;;1.10;;
15812;SDS011;8007;51.404;6.304;2022-10-16T11:36:44;3.10;;;1.00;;
15812;SDS011;8007;51.404;6.304;2022-10-16T11:38:49;1.48;;;1.15;;
15812;SDS011;8007;51.404;6.304;2022-10-16T11:40:54;1.65;;;0.93;;
15812;SDS011;8007;51.404;6.304;2022-10-16T11:43:00;2.03;;;1.10;;
15812;SDS011;8007;51.404;6.304;2022-10-16T11:45:07;3.50;;;1.42;;
15812;SDS011;8007;51.404;6.304;2022-10-16T11:47:16;3.97;;;1.27;;
15812;SDS011;8007;51.404;6.304;2022-10-16T11:49:22;3.97;;;1.20;;
15812;SDS011;8007;51.404;6.304;2022-10-16T11:51:28;2.13;;;0.97;;
15812;SDS011;8007;51.404;6.304;2022-10-16T11:53:37;4.07;;;0.90;;
15812;SDS011;8007;51.404;6.304;2022-10-16T11:55:41;2.57;;;0.90;;
15812;SDS011;8007;51.404;6.304;2022-10-16T11:57:44;1.50;;;1.03;;
15812;SDS011;8007;51.404;6.304;2022-10-16T11:59:48;3.07;;;1.07;;
15812;SDS011;8007;51.404;6.304;2022-10-16T12:01:53;2.47;;;0.93;;
15812;SDS011;8007;51.404;6.304;2022-10-16T12:06:22;2.40;;;1.13;;
15812;SDS011;8007;51.404;6.304;2022-10-16T12:08:25;2.23;;;0.70;;
15812;SDS011;8007;51.404;6.304;2022-10-16T12:10:28;2.37;;;0.77;;
15812;SDS011;8007;51.404;6.304;2022-10-16T12:12:37;2.27;;;0.90;;
15812;SDS011;8007;51.404;6.304;2022-10-16T12:14:40;1.40;;;0.77;;
15812;SDS011;8007;51.404;6.304;2022-10-16T12:16:50;2.33;;;1.17;;
15812;SDS011;8007;51.404;6.304;2022-10-16T12:19:02;2.97;;;0.80;;
15812;SDS011;8007;51.404;6.304;2022-10-16T12:21:05;1.70;;;1.00;;
15812;SDS011;8007;51.404;6.304;2022-10-16T12:23:19;0.97;;;0.70;;
15812;SDS011;8007;51.404;6.304;2022-10-16T12:25:23;2.93;;;0.63;;
15812;SDS011;8007;51.404;6.304;2022-10-16T12:27:27;2.83;;;0.87;;
15812;SDS011;8007;51.404;6.304;2022-10-16T12:29:33;2.57;;;1.07;;
15812;SDS011;8007;51.404;6.304;2022-10-16T12:31:36;4.17;;;0.90;;
15812;SDS011;8007;51.404;6.304;2022-10-16T12:33:39;2.92;;;1.08;;
15812;SDS011;8007;51.404;6.304;2022-10-16T12:35:43;1.57;;;1.23;;
15812;SDS011;8007;51.404;6.304;2022-10-16T12:37:45;3.63;;;0.80;;
15812;SDS011;8007;51.404;6.304;2022-10-16T12:39:49;2.50;;;0.80;;
15812;SDS011;8007;51.404;6.304;2022-10-16T12:42:01;2.37;;;0.80;;